sensor_id;sensor_type;location;lat;lon;timestamp;temperature;humidity
19292;DHT22;9779;51.756;7.450;2023-12-07T00:01:08;2.50;99.90
19292;DHT22;9779;51.756;7.450;2023-12-07T00:03:34;2.50;99.90
19292;DHT22;9779;51.756;7.450;2023-12-07T00:05:59;2.50;99.90
19292;DHT22;9779;51.756;7.450;2023-12-07T00:08:25;2.50;99.90
19292;DHT22;9779;51.756;7.450;2023-12-07T00:10:51;2.50;99.90
19292;DHT22;9779;51.756;7.450;2023-12-07T00:13:16;2.50;99.90
19292;DHT22;9779;51.756;7.450;2023-12-07T00:15:42;2.50;99.90
19292;DHT22;9779;51.756;7.450;2023-12-07T00:18:08;2.50;99.90
19292;DHT22;9779;51.756;7.450;2023-12-07T00:20:33;2.60;99.90
19292;DHT22;9779;51.756;7.450;2023-12-07T00:22:59;2.60;99.90
19292;DHT22;9779;51.756;7.450;2023-12-07T00:25:25;2.50;99.90
19292;DHT22;9779;51.756;7.450;2023-12-07T00:27:51;2.60;99.90
19292;DHT22;9779;51.756;7.450;2023-12-07T00:30:17;2.50;99.90
19292;DHT22;9779;51.756;7.450;2023-12-07T00:32:43;2.50;99.90
19292;DHT22;9779;51.756;7.450;2023-12-07T00:35:12;2.60;99.90
19292;DHT22;9779;51.756;7.450;2023-12-07T00:37:38;2.60;99.90
19292;DHT22;9779;51.756;7.450;2023-12-07T00:40:04;2.60;99.90
19292;DHT22;9779;51.756;7.450;2023-12-07T00:42:30;2.60;99.90
19292;DHT22;9779;51.756;7.450;2023-12-07T00:44:56;2.70;99.90
19292;DHT22;9779;51.756;7.450;2023-12-07T00:47:22;2.60;99.90
19292;DHT22;9779;51.756;7.450;2023-12-07T00:49:47;2.70;99.90
19292;DHT22;9779;51.756;7.450;2023-12-07T00:52:13;2.70;99.90
19292;DHT22;9779;51.756;7.450;2023-12-07T00:54:39;2.60;99.90
19292;DHT22;9779;51.756;7.450;2023-12-07T00:57:06;2.70;99.90
19292;DHT22;9779;51.756;7.450;2023-12-07T00:59:32;2.70;99.90
19292;DHT22;9779;51.756;7.450;2023-12-07T01:02:05;2.60;99.90
19292;DHT22;9779;51.756;7.450;2023-12-07T01:04:32;2.70;99.90
19292;DHT22;9779;51.756;7.450;2023-12-07T01:06:58;2.70;99.90
19292;DHT22;9779;51.756;7.450;2023-12-07T01:09:24;2.70;99.90
19292;DHT22;9779;51.756;7.450;2023-12-07T01:11:50;2.70;99.90
19292;DHT22;9779;51.756;7.450;2023-12-07T01:14:16;2.70;99.90
19292;DHT22;9779;51.756;7.450;2023-12-07T01:16:42;2.70;99.90
19292;DHT22;9779;51.756;7.450;2023-12-07T01:19:08;2.70;99.90
19292;DHT22;9779;51.756;7.450;2023-12-07T01:21:34;2.70;99.90
19292;DHT22;9779;51.756;7.450;2023-12-07T01:24:00;2.70;99.90
19292;DHT22;9779;51.756;7.450;2023-12-07T01:26:25;2.70;99.90
19292;DHT22;9779;51.756;7.450;2023-12-07T01:28:51;2.60;99.90
19292;DHT22;9779;51.756;7.450;2023-12-07T01:31:17;2.60;99.90
19292;DHT22;9779;51.756;7.450;2023-12-07T01:33:43;2.60;99.90
19292;DHT22;9779;51.756;7.450;2023-12-07T01:36:09;2.60;99.90
19292;DHT22;9779;51.756;7.450;2023-12-07T01:38:35;2.60;99.90
19292;DHT22;9779;51.756;7.450;2023-12-07T01:41:01;2.60;99.90
19292;DHT22;9779;51.756;7.450;2023-12-07T01:43:26;2.60;99.90
19292;DHT22;9779;51.756;7.450;2023-12-07T01:45:53;2.60;99.90
19292;DHT22;9779;51.756;7.450;2023-12-07T01:48:21;2.50;99.90
19292;DHT22;9779;51.756;7.450;2023-12-07T01:50:47;2.50;99.90
19292;DHT22;9779;51.756;7.450;2023-12-07T01:53:13;2.50;99.90
19292;DHT22;9779;51.756;7.450;2023-12-07T01:55:40;2.50;99.90
19292;DHT22;9779;51.756;7.450;2023-12-07T01:58:06;2.50;99.90
19292;DHT22;9779;51.756;7.450;2023-12-07T02:00:33;2.50;99.90
19292;DHT22;9779;51.756;7.450;2023-12-07T02:03:00;2.40;99.90
19292;DHT22;9779;51.756;7.450;2023-12-07T02:05:26;2.50;99.90
19292;DHT22;9779;51.756;7.450;2023-12-07T02:07:52;2.50;99.90
19292;DHT22;9779;51.756;7.450;2023-12-07T02:10:19;2.50;99.90
19292;DHT22;9779;51.756;7.450;2023-12-07T02:12:45;2.50;99.90
19292;DHT22;9779;51.756;7.450;2023-12-07T02:15:11;2.40;99.90
19292;DHT22;9779;51.756;7.450;2023-12-07T02:20:12;2.40;99.90
19292;DHT22;9779;51.756;7.450;2023-12-07T02:22:42;2.40;99.90
19292;DHT22;9779;51.756;7.450;2023-12-07T02:25:13;2.40;99.90
19292;DHT22;9779;51.756;7.450;2023-12-07T02:27:41;2.40;99.90
19292;DHT22;9779;51.756;7.450;2023-12-07T02:30:09;2.40;99.90
19292;DHT22;9779;51.756;7.450;2023-12-07T02:32:39;2.50;99.90
19292;DHT22;9779;51.756;7.450;2023-12-07T02:35:08;2.50;99.90
19292;DHT22;9779;51.756;7.450;2023-12-07T02:37:53;2.40;99.90
19292;DHT22;9779;51.756;7.450;2023-12-07T02:40:23;2.40;99.90
19292;DHT22;9779;51.756;7.450;2023-12-07T02:42:49;2.40;99.90
19292;DHT22;9779;51.756;7.450;2023-12-07T02:45:15;2.40;99.90
19292;DHT22;9779;51.756;7.450;2023-12-07T02:47:41;2.30;99.90
19292;DHT22;9779;51.756;7.450;2023-12-07T02:50:09;2.30;99.90
19292;DHT22;9779;51.756;7.450;2023-12-07T02:52:35;2.30;99.90
19292;DHT22;9779;51.756;7.450;2023-12-07T02:55:00;2.20;99.90
19292;DHT22;9779;51.756;7.450;2023-12-07T02:57:26;2.20;99.90
19292;DHT22;9779;51.756;7.450;2023-12-07T02:59:52;2.10;99.90
19292;DHT22;9779;51.756;7.450;2023-12-07T03:02:17;2.10;99.90
19292;DHT22;9779;51.756;7.450;2023-12-07T03:04:43;2.10;99.90
19292;DHT22;9779;51.756;7.450;2023-12-07T03:07:09;2.10;99.90
19292;DHT22;9779;51.756;7.450;2023-12-07T03:09:34;2.10;99.90
19292;DHT22;9779;51.756;7.450;2023-12-07T03:12:00;2.00;99.90
19292;DHT22;9779;51.756;7.450;2023-12-07T03:14:26;2.10;99.90
19292;DHT22;9779;51.756;7.450;2023-12-07T03:16:51;2.00;99.90
19292;DHT22;9779;51.756;7.450;2023-12-07T03:19:17;2.00;99.90
19292;DHT22;9779;51.756;7.450;2023-12-07T03:21:42;1.90;99.90
19292;DHT22;9779;51.756;7.450;2023-12-07T03:24:09;2.00;99.90
19292;DHT22;9779;51.756;7.450;2023-12-07T03:26:35;2.00;99.90
19292;DHT22;9779;51.756;7.450;2023-12-07T03:29:00;2.00;99.90
19292;DHT22;9779;51.756;7.450;2023-12-07T03:31:27;2.00;99.90
19292;DHT22;9779;51.756;7.450;2023-12-07T03:33:53;2.10;99.90
19292;DHT22;9779;51.756;7.450;2023-12-07T03:36:19;2.10;99.90
19292;DHT22;9779;51.756;7.450;2023-12-07T03:38:44;2.10;99.90
19292;DHT22;9779;51.756;7.450;2023-12-07T03:41:10;2.10;99.90
19292;DHT22;9779;51.756;7.450;2023-12-07T03:43:35;2.10;99.90
19292;DHT22;9779;51.756;7.450;2023-12-07T03:46:04;2.10;99.90
19292;DHT22;9779;51.756;7.450;2023-12-07T03:48:31;2.10;99.90
19292;DHT22;9779;51.756;7.450;2023-12-07T03:50:57;2.10;99.90
19292;DHT22;9779;51.756;7.450;2023-12-07T03:53:22;2.10;99.90
19292;DHT22;9779;51.756;7.450;2023-12-07T03:55:48;2.00;99.90
19292;DHT22;9779;51.756;7.450;2023-12-07T03:58:14;2.00;99.90
19292;DHT22;9779;51.756;7.450;2023-12-07T04:00:40;2.00;99.90
19292;DHT22;9779;51.756;7.450;2023-12-07T04:03:05;2.00;99.90
19292;DHT22;9779;51.756;7.450;2023-12-07T04:05:32;2.00;99.90
19292;DHT22;9779;51.756;7.450;2023-12-07T04:07:58;1.90;99.90
19292;DHT22;9779;51.756;7.450;2023-12-07T04:10:24;1.90;99.90
19292;DHT22;9779;51.756;7.450;2023-12-07T04:12:50;1.90;99.90
19292;DHT22;9779;51.756;7.450;2023-12-07T04:15:18;1.90;99.90
19292;DHT22;9779;51.756;7.450;2023-12-07T04:17:44;1.80;99.90
19292;DHT22;9779;51.756;7.450;2023-12-07T04:20:10;1.70;99.90
19292;DHT22;9779;51.756;7.450;2023-12-07T04:22:36;1.80;99.90
19292;DHT22;9779;51.756;7.450;2023-12-07T04:25:01;1.80;99.90
19292;DHT22;9779;51.756;7.450;2023-12-07T04:27:27;1.80;99.90
19292;DHT22;9779;51.756;7.450;2023-12-07T04:29:53;1.90;99.90
19292;DHT22;9779;51.756;7.450;2023-12-07T04:32:19;1.80;99.90
19292;DHT22;9779;51.756;7.450;2023-12-07T04:34:44;1.80;99.90
19292;DHT22;9779;51.756;7.450;2023-12-07T04:37:10;1.80;99.90
19292;DHT22;9779;51.756;7.450;2023-12-07T04:39:36;1.80;99.90
19292;DHT22;9779;51.756;7.450;2023-12-07T04:42:02;1.70;99.90
19292;DHT22;9779;51.756;7.450;2023-12-07T04:44:27;1.60;99.90
19292;DHT22;9779;51.756;7.450;2023-12-07T04:46:53;1.70;99.90
19292;DHT22;9779;51.756;7.450;2023-12-07T04:49:19;1.60;99.90
19292;DHT22;9779;51.756;7.450;2023-12-07T04:51:45;1.70;99.90
19292;DHT22;9779;51.756;7.450;2023-12-07T04:54:13;1.60;99.90
19292;DHT22;9779;51.756;7.450;2023-12-07T04:56:41;1.70;99.90
19292;DHT22;9779;51.756;7.450;2023-12-07T04:59:07;1.60;99.90
19292;DHT22;9779;51.756;7.450;2023-12-07T05:01:32;1.60;99.90
19292;DHT22;9779;51.756;7.450;2023-12-07T05:03:58;1.60;99.90
19292;DHT22;9779;51.756;7.450;2023-12-07T05:06:23;1.60;99.90
19292;DHT22;9779;51.756;7.450;2023-12-07T05:08:50;1.60;99.90
19292;DHT22;9779;51.756;7.450;2023-12-07T05:11:15;1.60;99.90
19292;DHT22;9779;51.756;7.450;2023-12-07T05:13:41;1.60;99.90
19292;DHT22;9779;51.756;7.450;2023-12-07T05:16:08;1.60;99.90
19292;DHT22;9779;51.756;7.450;2023-12-07T05:18:33;1.60;99.90
19292;DHT22;9779;51.756;7.450;2023-12-07T05:20:59;1.70;99.90
19292;DHT22;9779;51.756;7.450;2023-12-07T05:23:25;1.60;99.90
19292;DHT22;9779;51.756;7.450;2023-12-07T05:25:50;1.60;99.90
19292;DHT22;9779;51.756;7.450;2023-12-07T05:28:16;1.60;99.90
19292;DHT22;9779;51.756;7.450;2023-12-07T05:30:42;1.60;99.90
19292;DHT22;9779;51.756;7.450;2023-12-07T05:33:07;1.60;99.90
19292;DHT22;9779;51.756;7.450;2023-12-07T05:35:33;1.60;99.90
19292;DHT22;9779;51.756;7.450;2023-12-07T05:37:59;1.60;99.90
19292;DHT22;9779;51.756;7.450;2023-12-07T05:40:24;1.70;99.90
19292;DHT22;9779;51.756;7.450;2023-12-07T05:42:50;1.60;99.90
19292;DHT22;9779;51.756;7.450;2023-12-07T05:45:16;1.50;99.90
19292;DHT22;9779;51.756;7.450;2023-12-07T05:47:42;1.50;99.90
19292;DHT22;9779;51.756;7.450;2023-12-07T05:50:08;1.60;99.90
19292;DHT22;9779;51.756;7.450;2023-12-07T05:52:33;1.60;99.90
19292;DHT22;9779;51.756;7.450;2023-12-07T05:54:59;1.50;99.90
19292;DHT22;9779;51.756;7.450;2023-12-07T05:57:25;1.50;99.90
19292;DHT22;9779;51.756;7.450;2023-12-07T05:59:50;1.50;99.90
19292;DHT22;9779;51.756;7.450;2023-12-07T06:02:16;1.50;99.90
19292;DHT22;9779;51.756;7.450;2023-12-07T06:04:42;1.60;99.90
19292;DHT22;9779;51.756;7.450;2023-12-07T06:07:07;1.50;99.90
19292;DHT22;9779;51.756;7.450;2023-12-07T06:09:33;1.50;99.90
19292;DHT22;9779;51.756;7.450;2023-12-07T06:11:59;1.60;99.90
19292;DHT22;9779;51.756;7.450;2023-12-07T06:14:25;1.60;99.90
19292;DHT22;9779;51.756;7.450;2023-12-07T06:16:50;1.60;99.90
19292;DHT22;9779;51.756;7.450;2023-12-07T06:19:16;1.60;99.90
19292;DHT22;9779;51.756;7.450;2023-12-07T06:21:43;1.60;99.90
19292;DHT22;9779;51.756;7.450;2023-12-07T06:24:09;1.60;99.90
19292;DHT22;9779;51.756;7.450;2023-12-07T06:26:35;1.60;99.90
19292;DHT22;9779;51.756;7.450;2023-12-07T06:29:01;1.70;99.90
19292;DHT22;9779;51.756;7.450;2023-12-07T06:31:27;1.60;99.90
19292;DHT22;9779;51.756;7.450;2023-12-07T06:33:53;1.70;99.90
19292;DHT22;9779;51.756;7.450;2023-12-07T06:36:22;1.70;99.90
19292;DHT22;9779;51.756;7.450;2023-12-07T06:38:48;1.70;99.90
19292;DHT22;9779;51.756;7.450;2023-12-07T06:41:14;1.70;99.90
19292;DHT22;9779;51.756;7.450;2023-12-07T06:43:41;1.80;99.90
19292;DHT22;9779;51.756;7.450;2023-12-07T06:46:06;1.70;99.90
19292;DHT22;9779;51.756;7.450;2023-12-07T06:48:32;1.80;99.90
19292;DHT22;9779;51.756;7.450;2023-12-07T06:50:58;1.80;99.90
19292;DHT22;9779;51.756;7.450;2023-12-07T06:53:23;1.90;99.90
19292;DHT22;9779;51.756;7.450;2023-12-07T06:55:49;1.90;99.90
19292;DHT22;9779;51.756;7.450;2023-12-07T06:58:14;1.90;99.90
19292;DHT22;9779;51.756;7.450;2023-12-07T07:00:40;1.90;99.90
19292;DHT22;9779;51.756;7.450;2023-12-07T07:03:05;1.90;99.90
19292;DHT22;9779;51.756;7.450;2023-12-07T07:05:31;1.90;99.90
19292;DHT22;9779;51.756;7.450;2023-12-07T07:07:57;1.90;99.90
19292;DHT22;9779;51.756;7.450;2023-12-07T07:10:23;1.90;99.90
19292;DHT22;9779;51.756;7.450;2023-12-07T07:12:49;2.00;99.90
19292;DHT22;9779;51.756;7.450;2023-12-07T07:15:15;2.00;99.90
19292;DHT22;9779;51.756;7.450;2023-12-07T07:17:41;2.00;99.90
19292;DHT22;9779;51.756;7.450;2023-12-07T07:20:07;2.00;99.90
19292;DHT22;9779;51.756;7.450;2023-12-07T07:22:33;2.00;99.90
19292;DHT22;9779;51.756;7.450;2023-12-07T07:25:00;2.10;99.90
19292;DHT22;9779;51.756;7.450;2023-12-07T07:27:25;2.10;99.90
19292;DHT22;9779;51.756;7.450;2023-12-07T07:29:51;2.10;99.90
19292;DHT22;9779;51.756;7.450;2023-12-07T07:32:17;2.10;99.90
19292;DHT22;9779;51.756;7.450;2023-12-07T07:34:43;2.10;99.90
19292;DHT22;9779;51.756;7.450;2023-12-07T07:37:08;2.10;99.90
19292;DHT22;9779;51.756;7.450;2023-12-07T07:39:34;2.10;99.90
19292;DHT22;9779;51.756;7.450;2023-12-07T07:42:00;2.10;99.90
19292;DHT22;9779;51.756;7.450;2023-12-07T07:44:26;2.10;99.90
19292;DHT22;9779;51.756;7.450;2023-12-07T07:46:51;2.20;99.90
19292;DHT22;9779;51.756;7.450;2023-12-07T07:49:17;2.20;99.90
19292;DHT22;9779;51.756;7.450;2023-12-07T07:51:43;2.20;99.90
19292;DHT22;9779;51.756;7.450;2023-12-07T07:54:08;2.20;99.90
19292;DHT22;9779;51.756;7.450;2023-12-07T07:56:34;2.20;99.90
19292;DHT22;9779;51.756;7.450;2023-12-07T07:59:01;2.20;99.90
19292;DHT22;9779;51.756;7.450;2023-12-07T08:01:26;2.20;99.90
19292;DHT22;9779;51.756;7.450;2023-12-07T08:03:52;2.20;99.90
19292;DHT22;9779;51.756;7.450;2023-12-07T08:06:18;2.20;99.90
19292;DHT22;9779;51.756;7.450;2023-12-07T08:08:44;2.20;99.90
19292;DHT22;9779;51.756;7.450;2023-12-07T08:11:09;2.10;99.90
19292;DHT22;9779;51.756;7.450;2023-12-07T08:13:35;2.20;99.90
19292;DHT22;9779;51.756;7.450;2023-12-07T08:16:01;2.20;99.90
19292;DHT22;9779;51.756;7.450;2023-12-07T08:18:26;2.10;99.90
19292;DHT22;9779;51.756;7.450;2023-12-07T08:20:52;2.10;99.90
19292;DHT22;9779;51.756;7.450;2023-12-07T08:23:18;2.10;99.90
19292;DHT22;9779;51.756;7.450;2023-12-07T08:25:43;2.10;99.90
19292;DHT22;9779;51.756;7.450;2023-12-07T08:28:09;2.10;99.90
19292;DHT22;9779;51.756;7.450;2023-12-07T08:30:36;2.10;99.90
19292;DHT22;9779;51.756;7.450;2023-12-07T08:33:01;2.10;99.90
19292;DHT22;9779;51.756;7.450;2023-12-07T08:35:27;2.10;99.90
19292;DHT22;9779;51.756;7.450;2023-12-07T08:37:53;2.10;99.90
19292;DHT22;9779;51.756;7.450;2023-12-07T08:40:18;2.20;99.90
19292;DHT22;9779;51.756;7.450;2023-12-07T08:42:45;2.10;99.90
19292;DHT22;9779;51.756;7.450;2023-12-07T08:45:11;2.10;99.90
19292;DHT22;9779;51.756;7.450;2023-12-07T08:47:39;2.20;99.90
19292;DHT22;9779;51.756;7.450;2023-12-07T08:50:05;3.30;99.90
19292;DHT22;9779;51.756;7.450;2023-12-07T08:52:33;3.80;99.90
19292;DHT22;9779;51.756;7.450;2023-12-07T08:54:59;3.60;99.90
19292;DHT22;9779;51.756;7.450;2023-12-07T08:57:24;3.30;99.90
19292;DHT22;9779;51.756;7.450;2023-12-07T08:59:50;3.10;99.90
19292;DHT22;9779;51.756;7.450;2023-12-07T09:02:16;2.90;99.90
19292;DHT22;9779;51.756;7.450;2023-12-07T09:04:42;2.80;99.90
19292;DHT22;9779;51.756;7.450;2023-12-07T09:07:08;2.70;99.90
19292;DHT22;9779;51.756;7.450;2023-12-07T09:09:35;2.70;99.90
19292;DHT22;9779;51.756;7.450;2023-12-07T09:12:01;2.60;99.90
19292;DHT22;9779;51.756;7.450;2023-12-07T09:14:26;2.60;99.90
19292;DHT22;9779;51.756;7.450;2023-12-07T09:16:52;2.60;99.90
19292;DHT22;9779;51.756;7.450;2023-12-07T09:19:18;2.60;99.90
19292;DHT22;9779;51.756;7.450;2023-12-07T09:21:43;2.60;99.90
19292;DHT22;9779;51.756;7.450;2023-12-07T09:24:09;2.70;99.90
19292;DHT22;9779;51.756;7.450;2023-12-07T09:26:35;2.70;99.90
19292;DHT22;9779;51.756;7.450;2023-12-07T09:29:01;2.70;99.90
19292;DHT22;9779;51.756;7.450;2023-12-07T09:31:28;2.70;99.90
19292;DHT22;9779;51.756;7.450;2023-12-07T09:33:53;2.80;99.90
19292;DHT22;9779;51.756;7.450;2023-12-07T09:36:19;2.70;99.90
19292;DHT22;9779;51.756;7.450;2023-12-07T09:38:46;2.80;99.90
19292;DHT22;9779;51.756;7.450;2023-12-07T09:41:12;2.80;99.90
19292;DHT22;9779;51.756;7.450;2023-12-07T09:43:38;2.80;99.90
19292;DHT22;9779;51.756;7.450;2023-12-07T09:46:04;2.90;99.90
19292;DHT22;9779;51.756;7.450;2023-12-07T09:48:31;2.90;99.90
19292;DHT22;9779;51.756;7.450;2023-12-07T09:50:59;2.90;99.90
19292;DHT22;9779;51.756;7.450;2023-12-07T09:53:26;2.90;99.90
19292;DHT22;9779;51.756;7.450;2023-12-07T09:55:52;3.00;99.90
19292;DHT22;9779;51.756;7.450;2023-12-07T09:58:18;3.00;99.90
19292;DHT22;9779;51.756;7.450;2023-12-07T10:00:44;3.10;99.90
19292;DHT22;9779;51.756;7.450;2023-12-07T10:03:20;3.10;99.90
19292;DHT22;9779;51.756;7.450;2023-12-07T10:06:00;3.10;99.90
19292;DHT22;9779;51.756;7.450;2023-12-07T10:08:31;3.10;99.90
19292;DHT22;9779;51.756;7.450;2023-12-07T10:13:31;3.20;99.90
19292;DHT22;9779;51.756;7.450;2023-12-07T10:16:13;3.20;99.90
19292;DHT22;9779;51.756;7.450;2023-12-07T10:18:41;3.30;99.90
19292;DHT22;9779;51.756;7.450;2023-12-07T10:21:09;3.30;99.90
19292;DHT22;9779;51.756;7.450;2023-12-07T10:23:36;3.30;99.90
19292;DHT22;9779;51.756;7.450;2023-12-07T10:26:02;3.40;99.90
19292;DHT22;9779;51.756;7.450;2023-12-07T10:28:30;3.40;99.90
19292;DHT22;9779;51.756;7.450;2023-12-07T10:30:56;3.40;99.90
19292;DHT22;9779;51.756;7.450;2023-12-07T10:33:22;3.50;99.90
19292;DHT22;9779;51.756;7.450;2023-12-07T10:35:48;3.50;99.90
19292;DHT22;9779;51.756;7.450;2023-12-07T10:38:14;3.60;99.90
19292;DHT22;9779;51.756;7.450;2023-12-07T10:40:40;3.70;99.90
19292;DHT22;9779;51.756;7.450;2023-12-07T10:43:07;3.70;99.90
19292;DHT22;9779;51.756;7.450;2023-12-07T10:45:34;3.70;99.90
19292;DHT22;9779;51.756;7.450;2023-12-07T10:48:06;3.80;99.90
19292;DHT22;9779;51.756;7.450;2023-12-07T10:50:37;3.90;99.90
19292;DHT22;9779;51.756;7.450;2023-12-07T10:53:10;4.00;99.90
19292;DHT22;9779;51.756;7.450;2023-12-07T10:55:54;4.00;99.90
19292;DHT22;9779;51.756;7.450;2023-12-07T10:58:22;4.10;99.90
19292;DHT22;9779;51.756;7.450;2023-12-07T11:00:52;4.20;99.90
19292;DHT22;9779;51.756;7.450;2023-12-07T11:03:18;4.20;99.90
19292;DHT22;9779;51.756;7.450;2023-12-07T11:05:47;4.30;99.90
19292;DHT22;9779;51.756;7.450;2023-12-07T11:11:06;4.50;99.90
19292;DHT22;9779;51.756;7.450;2023-12-07T11:13:37;4.60;99.90
19292;DHT22;9779;51.756;7.450;2023-12-07T11:16:03;4.60;99.90
19292;DHT22;9779;51.756;7.450;2023-12-07T11:18:29;4.70;99.90
19292;DHT22;9779;51.756;7.450;2023-12-07T11:20:56;4.70;99.90
19292;DHT22;9779;51.756;7.450;2023-12-07T11:23:22;4.80;99.90
19292;DHT22;9779;51.756;7.450;2023-12-07T11:25:49;4.80;99.90
19292;DHT22;9779;51.756;7.450;2023-12-07T11:28:16;4.80;99.90
19292;DHT22;9779;51.756;7.450;2023-12-07T11:30:44;4.90;99.90
19292;DHT22;9779;51.756;7.450;2023-12-07T11:33:10;4.90;99.90
19292;DHT22;9779;51.756;7.450;2023-12-07T11:38:28;5.00;99.90
19292;DHT22;9779;51.756;7.450;2023-12-07T11:40:54;5.10;99.90
19292;DHT22;9779;51.756;7.450;2023-12-07T11:45:58;5.20;99.90
19292;DHT22;9779;51.756;7.450;2023-12-07T11:48:24;5.20;99.90
19292;DHT22;9779;51.756;7.450;2023-12-07T11:51:04;5.20;99.90
19292;DHT22;9779;51.756;7.450;2023-12-07T11:53:31;5.20;99.90
19292;DHT22;9779;51.756;7.450;2023-12-07T11:55:58;5.20;99.90
19292;DHT22;9779;51.756;7.450;2023-12-07T11:58:25;5.20;99.90
19292;DHT22;9779;51.756;7.450;2023-12-07T12:00:52;5.30;99.90
19292;DHT22;9779;51.756;7.450;2023-12-07T12:03:19;5.30;99.90
19292;DHT22;9779;51.756;7.450;2023-12-07T12:05:45;5.40;99.90
19292;DHT22;9779;51.756;7.450;2023-12-07T12:08:12;5.40;99.90
19292;DHT22;9779;51.756;7.450;2023-12-07T12:10:39;5.50;99.90
19292;DHT22;9779;51.756;7.450;2023-12-07T12:13:05;5.60;99.90
19292;DHT22;9779;51.756;7.450;2023-12-07T12:15:31;5.70;99.90
19292;DHT22;9779;51.756;7.450;2023-12-07T12:17:57;5.70;99.90
19292;DHT22;9779;51.756;7.450;2023-12-07T12:20:24;5.80;99.90
19292;DHT22;9779;51.756;7.450;2023-12-07T12:22:51;6.90;99.90
19292;DHT22;9779;51.756;7.450;2023-12-07T12:25:25;7.00;99.90
19292;DHT22;9779;51.756;7.450;2023-12-07T12:27:54;6.70;99.90
19292;DHT22;9779;51.756;7.450;2023-12-07T12:30:21;6.60;99.90
19292;DHT22;9779;51.756;7.450;2023-12-07T12:32:50;6.50;99.90
19292;DHT22;9779;51.756;7.450;2023-12-07T12:35:17;6.50;99.90
19292;DHT22;9779;51.756;7.450;2023-12-07T12:37:44;6.50;99.90
19292;DHT22;9779;51.756;7.450;2023-12-07T12:40:14;6.50;99.90
19292;DHT22;9779;51.756;7.450;2023-12-07T12:42:48;6.60;99.90
19292;DHT22;9779;51.756;7.450;2023-12-07T12:45:14;6.60;99.90
19292;DHT22;9779;51.756;7.450;2023-12-07T12:47:41;6.60;99.90
19292;DHT22;9779;51.756;7.450;2023-12-07T12:50:09;6.60;99.90
19292;DHT22;9779;51.756;7.450;2023-12-07T12:52:35;6.60;99.90
19292;DHT22;9779;51.756;7.450;2023-12-07T12:55:01;6.60;99.90
19292;DHT22;9779;51.756;7.450;2023-12-07T12:57:28;6.70;99.90
19292;DHT22;9779;51.756;7.450;2023-12-07T12:59:54;6.70;99.90
19292;DHT22;9779;51.756;7.450;2023-12-07T13:02:20;6.70;90.70
19292;DHT22;9779;51.756;7.450;2023-12-07T13:04:46;6.70;97.40
19292;DHT22;9779;51.756;7.450;2023-12-07T13:07:13;6.70;99.90
19292;DHT22;9779;51.756;7.450;2023-12-07T13:09:39;6.70;99.90
19292;DHT22;9779;51.756;7.450;2023-12-07T13:12:05;6.70;52.80
19292;DHT22;9779;51.756;7.450;2023-12-07T13:14:31;6.80;15.60
19292;DHT22;9779;51.756;7.450;2023-12-07T13:17:01;6.80;96.30
19292;DHT22;9779;51.756;7.450;2023-12-07T13:19:27;6.80;99.90
19292;DHT22;9779;51.756;7.450;2023-12-07T13:21:52;6.80;1.00
19292;DHT22;9779;51.756;7.450;2023-12-07T13:24:18;6.80;1.00
19292;DHT22;9779;51.756;7.450;2023-12-07T13:26:44;6.80;71.20
19292;DHT22;9779;51.756;7.450;2023-12-07T13:29:09;6.80;38.60
19292;DHT22;9779;51.756;7.450;2023-12-07T13:31:35;6.80;1.00
19292;DHT22;9779;51.756;7.450;2023-12-07T13:34:01;6.80;1.00
19292;DHT22;9779;51.756;7.450;2023-12-07T13:36:27;6.70;99.90
19292;DHT22;9779;51.756;7.450;2023-12-07T13:38:55;6.70;99.90
19292;DHT22;9779;51.756;7.450;2023-12-07T13:41:21;6.70;99.90
19292;DHT22;9779;51.756;7.450;2023-12-07T13:43:47;6.70;99.90
19292;DHT22;9779;51.756;7.450;2023-12-07T13:46:17;6.70;99.90
19292;DHT22;9779;51.756;7.450;2023-12-07T13:48:43;6.70;99.90
19292;DHT22;9779;51.756;7.450;2023-12-07T13:51:08;6.70;1.00
19292;DHT22;9779;51.756;7.450;2023-12-07T13:53:34;6.70;99.90
19292;DHT22;9779;51.756;7.450;2023-12-07T13:56:00;6.70;1.00
19292;DHT22;9779;51.756;7.450;2023-12-07T13:58:26;6.60;1.00
19292;DHT22;9779;51.756;7.450;2023-12-07T14:00:52;6.70;1.00
19292;DHT22;9779;51.756;7.450;2023-12-07T14:03:17;6.60;99.90
19292;DHT22;9779;51.756;7.450;2023-12-07T14:05:43;6.60;99.90
19292;DHT22;9779;51.756;7.450;2023-12-07T14:08:08;6.60;27.20
19292;DHT22;9779;51.756;7.450;2023-12-07T14:10:34;6.60;99.90
19292;DHT22;9779;51.756;7.450;2023-12-07T14:13:00;6.60;99.90
19292;DHT22;9779;51.756;7.450;2023-12-07T14:15:26;6.60;99.90
19292;DHT22;9779;51.756;7.450;2023-12-07T14:17:52;6.60;99.90
19292;DHT22;9779;51.756;7.450;2023-12-07T14:20:17;6.60;99.90
19292;DHT22;9779;51.756;7.450;2023-12-07T14:22:43;6.60;1.00
19292;DHT22;9779;51.756;7.450;2023-12-07T14:25:10;6.60;1.00
19292;DHT22;9779;51.756;7.450;2023-12-07T14:27:35;6.60;28.90
19292;DHT22;9779;51.756;7.450;2023-12-07T14:30:01;6.60;1.00
19292;DHT22;9779;51.756;7.450;2023-12-07T14:32:27;6.50;99.90
19292;DHT22;9779;51.756;7.450;2023-12-07T14:34:54;6.50;1.00
19292;DHT22;9779;51.756;7.450;2023-12-07T14:37:20;6.50;1.00
19292;DHT22;9779;51.756;7.450;2023-12-07T14:39:46;6.40;1.00
19292;DHT22;9779;51.756;7.450;2023-12-07T14:42:13;6.20;38.10
19292;DHT22;9779;51.756;7.450;2023-12-07T14:44:39;6.20;99.90
19292;DHT22;9779;51.756;7.450;2023-12-07T14:47:04;6.10;99.90
19292;DHT22;9779;51.756;7.450;2023-12-07T14:49:30;6.00;99.90
19292;DHT22;9779;51.756;7.450;2023-12-07T14:51:56;5.90;94.80
19292;DHT22;9779;51.756;7.450;2023-12-07T14:54:24;5.80;99.90
19292;DHT22;9779;51.756;7.450;2023-12-07T14:56:50;5.70;99.90
19292;DHT22;9779;51.756;7.450;2023-12-07T14:59:15;5.70;99.90
19292;DHT22;9779;51.756;7.450;2023-12-07T15:01:42;5.60;99.90
19292;DHT22;9779;51.756;7.450;2023-12-07T15:04:08;5.60;99.90
19292;DHT22;9779;51.756;7.450;2023-12-07T15:06:34;5.50;1.00
19292;DHT22;9779;51.756;7.450;2023-12-07T15:09:01;5.50;1.00
19292;DHT22;9779;51.756;7.450;2023-12-07T15:11:30;5.40;1.00
19292;DHT22;9779;51.756;7.450;2023-12-07T15:13:56;5.30;1.00
19292;DHT22;9779;51.756;7.450;2023-12-07T15:16:22;5.30;1.00
19292;DHT22;9779;51.756;7.450;2023-12-07T15:18:47;5.30;1.00
19292;DHT22;9779;51.756;7.450;2023-12-07T15:21:13;5.20;1.00
19292;DHT22;9779;51.756;7.450;2023-12-07T15:23:43;5.10;1.00
19292;DHT22;9779;51.756;7.450;2023-12-07T15:26:10;5.00;1.00
19292;DHT22;9779;51.756;7.450;2023-12-07T15:28:36;5.00;1.00
19292;DHT22;9779;51.756;7.450;2023-12-07T15:31:03;4.90;1.00
19292;DHT22;9779;51.756;7.450;2023-12-07T15:33:30;4.90;1.00
19292;DHT22;9779;51.756;7.450;2023-12-07T15:35:57;4.80;1.00
19292;DHT22;9779;51.756;7.450;2023-12-07T15:38:22;4.80;1.00
19292;DHT22;9779;51.756;7.450;2023-12-07T15:40:48;4.70;1.00
19292;DHT22;9779;51.756;7.450;2023-12-07T15:43:14;4.70;1.00
19292;DHT22;9779;51.756;7.450;2023-12-07T15:45:40;4.60;1.00
19292;DHT22;9779;51.756;7.450;2023-12-07T15:48:05;4.60;65.50
19292;DHT22;9779;51.756;7.450;2023-12-07T15:50:32;4.60;1.00
19292;DHT22;9779;51.756;7.450;2023-12-07T15:52:57;4.50;1.00
19292;DHT22;9779;51.756;7.450;2023-12-07T15:55:24;4.50;1.00
19292;DHT22;9779;51.756;7.450;2023-12-07T15:57:50;4.40;1.00
19292;DHT22;9779;51.756;7.450;2023-12-07T16:00:15;4.40;1.00
19292;DHT22;9779;51.756;7.450;2023-12-07T16:02:41;4.30;1.00
19292;DHT22;9779;51.756;7.450;2023-12-07T16:05:07;4.30;1.00
19292;DHT22;9779;51.756;7.450;2023-12-07T16:07:34;4.30;46.90
19292;DHT22;9779;51.756;7.450;2023-12-07T16:10:01;4.20;99.90